메인 페이지
METAR-TAF:

METAR-TAF

공항 :

루앙, 프랑스

위도: 49-23N, 경도: 001-11E, 고도: 157m

현재 날씨관측

예보는 19분 전, 02:30시(UTC)에 발표되었습니다.
3kt
온도 12°C
습도 100%
기압 1015 hPa
시정: 8000m
약한비,

METAR: LFOP 130230Z AUTO 36003KT 8000 -RA BKN039/// OVC052/// ///TCU 12/12 Q1015

시각: 04:49 (02:49 UTC)

예보

예보는 12 시간 49분 전, 14:00시(UTC)에 발표되었습니다.
예보 대상 시간: 12일 15시부터 12일 24시까지 (UTC)
서북서7kt
시정 10km 이상
고도 2500ft 상공 구름 많음
일시적
12일 15시부터 12일 21시까지 (UTC)
시정: 3000m
고도 700ft 상공 구름 많음
고도 1400ft 상공 구름 많음, 타워링 적운.
소나기,

TAF: LFOP 121400Z 1215/1224 30007KT 9999 BKN025 TEMPO 1215/1221 3000 SHRA BKN007 BKN014TCU

4,000개 이상의 공항 관측 자료 및 예보 (METAR 및 TAF 보고).

지도상에서 검색 가능한 기상관측소가 노란 점과 빨간 점으로 표시되어 있습니다.

기상관측소 명을 보려면 표시 위로 마우스를 이동하세요.

날씨 관측과 예보를 보려면 클릭하세요.

지도 변경 : 확대하려면 엑스 표시가 있는 녹색 버튼, 축소하려면 빼기 표시가 있는 녹색 버튼, 다음 페이지의 지도를 보려면 녹색 화살표를 클릭하세요.


METAR-TAF: